Time;durP1;ratioP1;P1;durP2;ratioP2;P2;SDS_P1;SDS_P2;PMS_P1;PMS_P2;Temp;Humidity;BMP_temperature;BMP_pressure;BME280_temperature;BME280_humidity;BME280_pressure;Samples;Min_cycle;Max_cycle;Signal;HPM_P1;HPM_P2
2022/04/16 00:01:55;;;;;;;14.25;10.65;;;;;;;8.16;88.04;98455.72;1747336;82;20970;-57
2022/04/16 00:04:22;;;;;;;15.05;10.98;;;;;;;8.17;87.78;98450.06;1747580;82;21236;-57
2022/04/16 00:06:48;;;;;;;17.70;11.50;;;;;;;8.12;87.24;98450.02;1748182;82;21103;-57
2022/04/16 00:09:14;;;;;;;14.73;8.93;;;;;;;8.12;87.15;98451.91;1747550;82;20936;-57
2022/04/16 00:11:40;;;;;;;15.68;11.03;;;;;;;8.10;87.02;98449.97;1756744;81;20896;-57
2022/04/16 00:14:05;;;;;;;14.93;11.10;;;;;;;8.11;87.09;98451.59;1743979;81;20892;-57
2022/04/16 00:16:32;;;;;;;17.42;10.82;;;;;;;8.10;86.95;98445.92;1735556;82;21012;-57
2022/04/16 00:18:58;;;;;;;16.67;11.40;;;;;;;8.06;86.52;98452.38;1743694;82;21307;-57
2022/04/16 00:21:25;;;;;;;18.17;11.85;;;;;;;8.04;86.37;98451.81;1747851;82;21013;-57
2022/04/16 00:23:51;;;;;;;17.75;12.47;;;;;;;8.06;86.57;98448.33;1747830;82;20965;-57
2022/04/16 00:26:21;;;;;;;16.95;11.18;;;;;;;8.04;86.46;98454.52;1747768;82;21013;-57
2022/04/16 00:28:46;;;;;;;19.98;13.08;;;;;;;8.05;86.74;98458.03;1740453;81;21478;-57
2022/04/16 00:31:14;;;;;;;20.32;12.75;;;;;;;8.02;86.73;98449.06;1753336;81;21076;-57
2022/04/16 00:33:40;;;;;;;20.90;15.35;;;;;;;8.02;86.69;98454.47;1765540;79;21000;-57
2022/04/16 00:36:06;;;;;;;26.48;16.85;;;;;;;7.96;86.91;98454.15;1757491;81;20973;-56
2022/04/16 00:38:32;;;;;;;23.30;15.95;;;;;;;7.82;87.77;98447.77;1755112;79;20951;-57
2022/04/16 00:41:00;;;;;;;25.12;16.12;;;;;;;7.74;88.06;98448.74;1740599;80;20862;-56
2022/04/16 00:43:28;;;;;;;28.40;17.75;;;;;;;7.70;88.52;98448.44;1748041;82;21673;-57
2022/04/16 00:45:54;;;;;;;24.12;15.43;;;;;;;7.63;88.71;98448.62;1741465;81;20976;-57
2022/04/16 00:48:21;;;;;;;23.10;16.32;;;;;;;7.57;89.42;98449.61;1753527;81;21044;-57
2022/04/16 00:50:54;;;;;;;21.12;14.98;;;;;;;7.58;89.02;98444.49;1747918;81;21051;-57
2022/04/16 00:53:21;;;;;;;23.02;15.40;;;;;;;7.52;89.80;98448.20;1765499;79;20984;-57
2022/04/16 00:55:48;;;;;;;23.90;15.45;;;;;;;7.50;90.20;98442.77;1765353;81;21236;-57
2022/04/16 00:58:14;;;;;;;23.22;14.78;;;;;;;7.52;90.07;98448.20;1759121;81;21067;-57
2022/04/16 01:00:40;;;;;;;21.23;14.13;;;;;;;7.49;90.61;98441.95;1737369;82;21415;-57
2022/04/16 01:03:06;;;;;;;21.87;16.32;;;;;;;7.51;89.89;98443.86;1744574;80;20863;-57
2022/04/16 01:05:32;;;;;;;22.32;14.05;;;;;;;7.49;90.66;98441.13;1752056;81;21572;-57
2022/04/16 01:07:59;;;;;;;19.77;14.43;;;;;;;7.47;90.90;98437.34;1748054;82;21012;-57
2022/04/16 01:10:28;;;;;;;21.70;14.68;;;;;;;7.50;90.51;98442.77;1747513;82;20985;-57
2022/04/16 01:12:54;;;;;;;19.23;13.75;;;;;;;7.54;89.88;98439.33;1758785;81;21024;-57
2022/04/16 01:15:23;;;;;;;20.80;13.43;;;;;;;7.55;89.85;98434.22;1743553;82;21394;-57
2022/04/16 01:17:50;;;;;;;;;;;;;;;7.56;90.06;98434.50;1750060;82;20997;-57
2022/04/16 01:20:16;;;;;;;20.77;13.55;;;;;;;7.57;90.08;98429.38;1747635;82;21158;-57
2022/04/16 01:22:46;;;;;;;19.23;13.28;;;;;;;7.59;89.85;98435.87;1745748;82;21039;-57
2022/04/16 01:25:12;;;;;;;21.65;13.83;;;;;;;7.59;89.93;98435.33;1734456;82;21025;-57
2022/04/16 01:27:56;;;;;;;17.12;11.35;;;;;;;7.61;89.66;98437.80;1715158;82;20993;-57
2022/04/16 01:30:23;;;;;;;19.98;11.45;;;;;;;7.64;89.21;98438.64;1745715;82;21512;-57
2022/04/16 01:32:49;;;;;;;15.45;11.18;;;;;;;7.64;89.49;98435.41;1747771;82;21522;-57
2022/04/16 01:35:15;;;;;;;15.63;10.68;;;;;;;7.66;89.66;98439.20;1747750;82;21048;-57
2022/04/16 01:37:41;;;;;;;17.07;11.65;;;;;;;7.63;90.54;98431.09;1755292;81;21437;-57
2022/04/16 01:40:09;;;;;;;15.88;11.50;;;;;;;7.66;90.27;98431.11;1757900;81;20861;-57
2022/04/16 01:42:36;;;;;;;16.42;11.60;;;;;;;7.67;89.89;98434.62;1750402;81;21478;-57
2022/04/16 01:45:04;;;;;;;16.70;11.40;;;;;;;7.65;90.50;98437.58;1747740;82;21087;-57
2022/04/16 01:47:31;;;;;;;14.83;10.13;;;;;;;7.61;91.64;98429.18;1747966;82;21017;-57
2022/04/16 01:50:00;;;;;;;15.60;10.03;;;;;;;7.56;92.45;98437.19;1747847;82;21565;-57
2022/04/16 01:52:26;;;;;;;18.50;11.53;;;;;;;7.55;92.20;98434.75;1762391;81;20984;-57
2022/04/16 01:54:53;;;;;;;18.32;11.28;;;;;;;7.51;92.35;98437.11;1751372;79;21051;-57
2022/04/16 01:57:19;;;;;;;18.25;13.00;;;;;;;7.54;92.11;98452.00;1744918;82;21464;-57
2022/04/16 01:59:46;;;;;;;17.77;13.65;;;;;;;7.40;95.34;98443.44;1747659;82;21013;-57
2022/04/16 02:02:13;;;;;;;22.37;15.40;;;;;;;7.35;95.94;98446.09;1748155;82;21005;-57
2022/04/16 02:04:39;;;;;;;24.92;17.80;;;;;;;7.20;97.67;98445.33;1757036;79;21395;-57
2022/04/16 02:07:06;;;;;;;26.68;18.15;;;;;;;7.15;97.94;98448.47;1757371;81;20854;-57
2022/04/16 02:09:31;;;;;;;25.05;16.52;;;;;;;7.14;98.16;98446.84;1747744;82;22346;-57
2022/04/16 02:11:57;;;;;;;23.32;17.62;;;;;;;7.08;98.75;98453.48;1748011;82;20940;-57
2022/04/16 02:14:23;;;;;;;20.10;14.13;;;;;;;7.05;99.21;98445.09;1747461;82;21555;-58
2022/04/16 02:16:49;;;;;;;19.70;13.55;;;;;;;7.00;98.78;98446.35;1747978;82;20869;-57
2022/04/16 02:19:15;;;;;;;19.12;12.93;;;;;;;6.97;98.94;98444.16;1747745;82;20989;-57
2022/04/16 02:21:44;;;;;;;18.98;13.00;;;;;;;6.93;99.52;98445.73;1741499;82;21456;-57
2022/04/16 02:24:11;;;;;;;15.95;12.00;;;;;;;6.91;99.20;98442.44;1752454;79;21032;-57
2022/04/16 02:26:37;;;;;;;17.70;12.73;;;;;;;6.90;98.65;98447.55;1741430;82;20992;-57
2022/04/16 02:29:04;;;;;;;14.23;10.63;;;;;;;6.92;98.55;98446.77;1744902;82;22634;-56
2022/04/16 02:31:30;;;;;;;19.27;11.57;;;;;;;6.91;98.22;98451.87;1738682;82;21416;-57
2022/04/16 02:33:56;;;;;;;15.10;10.08;;;;;;;6.93;98.14;98461.36;1743555;82;21472;-56
2022/04/16 02:36:28;;;;;;;14.90;10.75;;;;;;;6.87;98.13;98456.13;1747627;82;20956;-56
2022/04/16 02:38:57;;;;;;;12.07;9.00;;;;;;;6.85;98.04;98455.03;1728848;81;21453;-57
2022/04/16 02:41:24;;;;;;;11.40;8.78;;;;;;;6.81;98.00;98454.41;1740085;82;21021;-57
2022/04/16 02:43:52;;;;;;;11.48;8.50;;;;;;;6.78;98.20;98460.57;1747762;81;21020;-57
2022/04/16 02:49:04;;;;;;;9.03;6.92;;;;;;;6.72;97.59;98463.41;1747521;81;20993;-57
2022/04/16 02:51:29;;;;;;;8.58;6.30;;;;;;;6.70;97.77;98466.89;1747606;81;20985;-57
2022/04/16 02:53:56;;;;;;;9.73;7.37;;;;;;;6.69;97.28;98464.73;1749043;81;21474;-57
2022/04/16 02:56:22;;;;;;;7.53;6.08;;;;;;;6.68;97.54;98469.84;1759051;81;21079;-57
2022/04/16 02:58:48;;;;;;;8.85;6.30;;;;;;;6.64;97.54;98471.89;1747624;81;22205;-57
2022/04/16 03:01:14;;;;;;;8.23;5.45;;;;;;;6.63;97.97;98485.08;1747787;81;20928;-57
2022/04/16 03:03:40;;;;;;;7.12;5.10;;;;;;;6.56;97.17;98482.53;1757503;79;21000;-57
2022/04/16 03:06:05;;;;;;;8.60;4.97;;;;;;;6.50;96.78;98484.87;1752569;81;20939;-57
2022/04/16 03:08:31;;;;;;;5.87;4.37;;;;;;;6.56;96.40;98488.45;1751389;81;20837;-57
2022/04/16 03:10:57;;;;;;;6.28;4.25;;;;;;;6.43;96.63;98486.36;1741516;81;21547;-57
2022/04/16 03:13:24;;;;;;;5.78;3.62;;;;;;;6.45;96.26;98489.61;1754026;81;20872;-57
2022/04/16 03:18:34;;;;;;;6.72;3.95;;;;;;;6.49;95.73;98500.20;1747722;81;21001;-57
2022/04/16 03:21:00;;;;;;;4.92;3.60;;;;;;;6.53;95.87;98508.60;1738322;81;21559;-57
2022/04/16 03:23:26;;;;;;;6.25;3.83;;;;;;;6.48;96.19;98507.97;1747841;82;21512;-57
2022/04/16 03:25:53;;;;;;;6.45;4.20;;;;;;;6.28;96.57;98512.98;1747601;81;20969;-57
2022/04/16 03:28:19;;;;;;;5.53;4.00;;;;;;;6.18;97.33;98515.48;1754856;80;21416;-57
2022/04/16 03:30:45;;;;;;;5.72;4.00;;;;;;;6.10;97.71;98526.08;1746286;81;20874;-57
2022/04/16 03:33:11;;;;;;;4.75;3.25;;;;;;;5.99;97.93;98524.25;1747834;81;21426;-57
2022/04/16 03:35:37;;;;;;;4.33;3.42;;;;;;;6.03;97.51;98531.31;1747982;81;21004;-57
2022/04/16 03:38:04;;;;;;;3.98;2.67;;;;;;;5.89;97.50;98531.52;1726705;81;20969;-57
2022/04/16 03:40:30;;;;;;;5.08;3.20;;;;;;;5.88;97.61;98535.27;1735227;82;20992;-57
2022/04/16 03:43:00;;;;;;;4.95;3.00;;;;;;;5.84;97.69;98542.72;1742694;80;20953;-57
2022/04/16 03:45:31;;;;;;;4.60;3.17;;;;;;;5.82;97.92;98547.53;1765548;81;21012;-57
2022/04/16 03:47:58;;;;;;;4.12;3.10;;;;;;;5.81;97.47;98553.44;1760721;81;21465;-57
2022/04/16 03:50:25;;;;;;;6.40;4.42;;;;;;;5.72;97.98;98552.66;1747674;81;21474;-57
2022/04/16 03:52:52;;;;;;;6.65;3.20;;;;;;;5.78;97.64;98552.54;1747972;82;20974;-57
2022/04/16 04:01:00;;;;;;;4.67;3.00;;;;;;;5.76;96.93;98561.91;1747618;81;21510;-57
2022/04/16 04:03:26;;;;;;;4.08;3.00;;;;;;;5.73;97.36;98570.45;1747688;82;20993;-57
2022/04/16 04:05:56;;;;;;;4.92;3.20;;;;;;;5.74;96.92;98576.94;1747740;81;20952;-57
2022/04/16 04:08:23;;;;;;;4.20;3.12;;;;;;;5.69;97.65;98581.38;1742423;81;21001;-57
2022/04/16 04:10:49;;;;;;;4.95;3.15;;;;;;;5.68;97.59;98579.21;1745835;82;21036;-57
2022/04/16 04:13:16;;;;;;;4.65;3.33;;;;;;;5.67;97.60;98585.64;1747750;82;21530;-57
2022/04/16 04:15:42;;;;;;;4.72;3.33;;;;;;;5.60;98.00;98588.97;1760224;81;20980;-57
2022/04/16 04:18:08;;;;;;;6.80;4.92;;;;;;;5.50;97.77;98587.39;1747504;82;21057;-57
2022/04/16 04:20:35;;;;;;;105.58;51.83;;;;;;;5.47;97.50;98595.41;1747675;81;20858;-57
2022/04/16 04:23:04;;;;;;;25.40;16.12;;;;;;;5.43;97.90;98613.56;1744774;79;21032;-57
2022/04/16 04:25:30;;;;;;;;;;;;;;;5.34;96.84;98611.73;1767904;81;22226;-57
2022/04/16 04:27:56;;;;;;;7.08;4.40;;;;;;;5.35;97.12;98602.62;1765295;80;20655;-57
2022/04/16 04:30:22;;;;;;;23.35;17.60;;;;;;;5.29;97.27;98611.60;1748961;81;21041;-57
2022/04/16 04:32:48;;;;;;;16.02;14.58;;;;;;;5.32;97.23;98617.35;1747819;82;20993;-57
2022/04/16 04:35:14;;;;;;;18.60;13.20;;;;;;;5.38;97.25;98618.27;1747856;82;20961;-57
2022/04/16 04:37:40;;;;;;;6.80;5.75;;;;;;;5.43;97.21;98621.63;1707505;82;21547;-56
2022/04/16 04:40:07;;;;;;;19.45;9.58;;;;;;;5.34;96.83;98616.59;1747366;81;20933;-57
2022/04/16 04:42:34;;;;;;;7.90;5.75;;;;;;;5.34;96.83;98616.59;1736779;82;21446;-57
2022/04/16 04:45:10;;;;;;;30.45;14.33;;;;;;;5.35;96.90;98624.13;1741615;82;21029;-57
2022/04/16 04:47:36;;;;;;;11.78;9.08;;;;;;;5.33;97.42;98626.23;1746254;82;20969;-57
2022/04/16 04:50:03;;;;;;;9.75;7.08;;;;;;;5.28;98.11;98636.31;1735170;81;21471;-57
2022/04/16 04:52:30;;;;;;;10.18;7.83;;;;;;;5.22;98.73;98640.47;1758827;81;21425;-57
2022/04/16 04:54:57;;;;;;;29.10;18.10;;;;;;;5.17;99.42;98646.52;1735089;82;21370;-57
2022/04/16 04:57:23;;;;;;;5.35;4.55;;;;;;;5.10;99.06;98653.84;1753533;81;21037;-57
2022/04/16 04:59:49;;;;;;;6.35;4.15;;;;;;;5.05;98.53;98659.92;1747460;81;20945;-57
2022/04/16 05:02:15;;;;;;;5.33;3.92;;;;;;;5.05;98.42;98656.42;1747705;81;21525;-57
2022/04/16 05:04:42;;;;;;;6.70;4.80;;;;;;;4.92;98.84;98654.72;1754210;81;21520;-57
2022/04/16 05:07:08;;;;;;;61.20;31.62;;;;;;;4.99;99.22;98664.03;1744852;81;21071;-57
2022/04/16 05:09:34;;;;;;;8.30;7.08;;;;;;;4.92;98.97;98659.27;1746492;82;21016;-57
2022/04/16 05:12:00;;;;;;;12.40;8.88;;;;;;;4.89;99.50;98667.80;1758775;81;20921;-57
2022/04/16 05:14:26;;;;;;;6.67;4.47;;;;;;;4.87;99.43;98669.87;1750320;81;21536;-57
2022/04/16 05:16:52;;;;;;;13.03;8.90;;;;;;;4.83;98.61;98671.38;1740205;82;20865;-57
2022/04/16 05:19:18;;;;;;;9.93;8.33;;;;;;;4.79;99.74;98673.19;1737923;82;20878;-57
2022/04/16 05:21:43;;;;;;;89.47;40.45;;;;;;;4.80;99.50;98684.22;1756726;81;20884;-57
2022/04/16 05:24:10;;;;;;;7.72;6.33;;;;;;;4.86;99.01;98678.97;1750057;81;21180;-57
2022/04/16 05:26:37;;;;;;;47.75;25.77;;;;;;;4.75;98.90;98686.75;1740762;82;21435;-57
2022/04/16 05:29:03;;;;;;;6.60;4.55;;;;;;;4.65;98.87;98689.16;1744178;82;21051;-57
2022/04/16 05:31:30;;;;;;;6.42;4.53;;;;;;;4.67;99.53;98690.27;1735521;82;20900;-57
2022/04/16 05:36:42;;;;;;;10.50;5.65;;;;;;;4.66;99.27;98694.81;1727548;82;21004;-57
2022/04/16 05:39:08;;;;;;;39.15;18.20;;;;;;;4.58;98.59;98709.88;1728670;81;21549;-57
2022/04/16 05:41:34;;;;;;;22.45;14.25;;;;;;;4.66;98.86;98705.56;1755437;81;21430;-57
2022/04/16 05:44:01;;;;;;;6.97;4.60;;;;;;;4.64;99.51;98709.52;1746372;81;20904;-57
2022/04/16 05:46:27;;;;;;;4.75;3.30;;;;;;;4.60;98.56;98715.84;1747877;81;20962;-57
2022/04/16 05:48:52;;;;;;;21.40;9.50;;;;;;;4.64;98.38;98713.02;1747839;81;20893;-57
2022/04/16 05:51:19;;;;;;;12.20;7.17;;;;;;;4.63;97.74;98718.63;1754045;81;21508;-57
2022/04/16 05:53:45;;;;;;;9.23;6.28;;;;;;;4.53;98.54;98707.89;1755211;81;21005;-57
2022/04/16 05:56:11;;;;;;;9.83;6.22;;;;;;;4.61;98.70;98714.80;1747931;81;21021;-57
2022/04/16 05:58:37;;;;;;;8.08;6.50;;;;;;;4.71;98.59;98722.34;1747587;81;21406;-57
2022/04/16 06:01:03;;;;;;;7.08;5.97;;;;;;;4.74;98.78;98724.58;1735684;81;20956;-57
2022/04/16 06:03:29;;;;;;;11.15;8.63;;;;;;;4.73;97.76;98725.63;1735228;81;21510;-57
2022/04/16 06:05:56;;;;;;;7.58;6.33;;;;;;;4.69;98.55;98729.78;1735468;82;20865;-57
2022/04/16 06:08:22;;;;;;;16.27;9.63;;;;;;;4.74;98.01;98734.79;1735624;82;21052;-57
2022/04/16 06:10:48;;;;;;;21.65;19.40;;;;;;;4.69;98.32;98741.87;1736751;82;20853;-57
2022/04/16 06:13:13;;;;;;;45.70;35.40;;;;;;;4.57;97.64;98736.95;1754261;79;20830;-57
2022/04/16 06:15:41;;;;;;;17.87;16.07;;;;;;;4.42;97.97;98743.50;1742760;81;21556;-57
2022/04/16 06:18:08;;;;;;;56.92;39.13;;;;;;;4.30;98.17;98756.55;1753086;79;21060;-57
2022/04/16 06:20:35;;;;;;;40.15;29.57;;;;;;;4.26;98.14;98756.14;1743475;81;21011;-57
2022/04/16 06:23:02;;;;;;;28.02;16.77;;;;;;;4.04;98.44;98753.58;1747996;82;20969;-57
2022/04/16 06:25:28;;;;;;;16.48;14.78;;;;;;;4.17;98.53;98757.47;1748011;82;21024;-57
2022/04/16 06:27:55;;;;;;;19.73;17.55;;;;;;;4.13;99.01;98753.60;1748090;82;21102;-57
2022/04/16 06:30:21;;;;;;;9.25;8.10;;;;;;;4.07;99.25;98759.84;1737799;82;21000;-57
2022/04/16 06:32:47;;;;;;;31.35;24.18;;;;;;;4.00;99.34;98757.73;1747491;82;21477;-57
2022/04/16 06:35:13;;;;;;;12.03;9.40;;;;;;;4.05;99.76;98763.27;1748280;82;20869;-57
2022/04/16 06:37:43;;;;;;;11.95;10.65;;;;;;;3.99;99.60;98760.92;1729067;82;20958;-57
2022/04/16 06:40:10;;;;;;;9.93;7.25;;;;;;;4.05;99.22;98755.22;1747656;81;21071;-57
2022/04/16 06:42:37;;;;;;;14.50;8.98;;;;;;;3.99;99.85;98766.30;1782311;80;21398;-57
2022/04/16 06:45:06;;;;;;;12.10;7.70;;;;;;;4.08;99.91;98770.34;1744733;80;21054;-57
2022/04/16 06:47:32;;;;;;;18.00;14.28;;;;;;;4.06;100.00;98771.61;1737565;81;21397;-57
2022/04/16 06:49:58;;;;;;;12.10;9.63;;;;;;;4.10;100.00;98768.28;1753287;81;21449;-58
2022/04/16 06:52:24;;;;;;;55.70;46.35;;;;;;;4.10;100.00;98769.62;1752955;81;21483;-57
2022/04/16 06:54:50;;;;;;;14.38;11.68;;;;;;;4.15;100.00;98772.97;1740145;81;20880;-57
2022/04/16 06:57:16;;;;;;;11.22;7.65;;;;;;;4.20;100.00;98775.30;1738937;81;21006;-57
2022/04/16 06:59:42;;;;;;;8.08;5.62;;;;;;;4.29;100.00;98781.21;1752830;81;20924;-57
2022/04/16 07:02:09;;;;;;;7.95;6.15;;;;;;;4.36;100.00;98781.98;1752595;81;20964;-57
2022/04/16 07:04:36;;;;;;;14.73;11.38;;;;;;;4.38;100.00;98781.23;1759239;81;21541;-57
2022/04/16 07:07:02;;;;;;;8.18;6.08;;;;;;;4.41;100.00;98786.14;1745330;81;20994;-57
2022/04/16 07:09:28;;;;;;;11.60;10.08;;;;;;;4.43;100.00;98784.58;1760786;80;20969;-57
2022/04/16 07:11:54;;;;;;;7.30;5.33;;;;;;;4.48;99.61;98788.77;1754206;80;20896;-57
2022/04/16 07:14:20;;;;;;;8.20;5.60;;;;;;;4.48;99.25;98790.11;1773252;80;20918;-57
2022/04/16 07:16:46;;;;;;;7.08;4.78;;;;;;;4.52;98.91;98793.45;1768254;80;22257;-57
2022/04/16 07:19:12;;;;;;;21.48;19.25;;;;;;;4.55;99.01;98801.61;1733486;81;20942;-56
2022/04/16 07:21:38;;;;;;;9.80;7.90;;;;;;;4.50;99.02;98796.89;1785277;80;21500;-57
2022/04/16 07:24:04;;;;;;;9.05;6.85;;;;;;;4.64;98.57;98804.83;1762348;80;20823;-57
2022/04/16 07:26:30;;;;;;;19.23;10.55;;;;;;;4.66;98.25;98800.05;1744823;82;20981;-57
2022/04/16 07:28:56;;;;;;;22.05;14.20;;;;;;;4.81;98.19;98804.53;1742968;81;21215;-57
2022/04/16 07:31:22;;;;;;;10.60;8.30;;;;;;;4.86;98.09;98807.35;1743805;82;20877;-57
2022/04/16 07:33:48;;;;;;;22.02;19.80;;;;;;;4.99;97.91;98809.09;1743510;80;20932;-57
2022/04/16 07:36:14;;;;;;;7.62;5.50;;;;;;;4.99;97.91;98809.09;1748341;82;20865;-57
2022/04/16 07:38:43;;;;;;;22.05;18.77;;;;;;;5.04;97.47;98813.24;1725749;82;21575;-57
2022/04/16 07:41:09;;;;;;;11.50;8.60;;;;;;;4.92;97.00;98813.18;1739596;82;21590;-57
2022/04/16 07:43:35;;;;;;;30.32;27.02;;;;;;;4.90;97.34;98811.25;1726095;82;20969;-57
2022/04/16 07:46:01;;;;;;;13.28;8.08;;;;;;;4.90;97.00;98820.65;1712652;82;20952;-57
2022/04/16 07:48:28;;;;;;;115.15;85.38;;;;;;;4.89;97.27;98814.98;1742673;82;38557;-57
2022/04/16 07:50:54;;;;;;;31.50;21.20;;;;;;;4.89;97.19;98827.07;1748647;82;22455;-57
2022/04/16 07:53:20;;;;;;;77.45;69.07;;;;;;;4.96;97.06;98821.63;1748217;82;21562;-57
2022/04/16 07:55:47;;;;;;;9.80;8.18;;;;;;;4.73;97.58;98825.78;1748319;82;21378;-57
2022/04/16 07:58:13;;;;;;;8.48;6.30;;;;;;;4.72;97.25;98835.41;1748371;81;20949;-57
2022/04/16 08:00:40;;;;;;;9.15;5.58;;;;;;;4.76;97.24;98836.59;1737944;81;20988;-57
2022/04/16 08:03:06;;;;;;;7.22;5.45;;;;;;;4.72;97.80;98840.78;1736041;82;21045;-57
2022/04/16 08:05:32;;;;;;;13.88;12.53;;;;;;;4.73;97.99;98845.10;1748414;82;22078;-57
2022/04/16 08:07:58;;;;;;;7.53;5.85;;;;;;;4.64;97.35;98841.88;1747787;82;20870;-57
2022/04/16 08:10:24;;;;;;;7.80;6.58;;;;;;;4.69;97.26;98841.20;1736797;82;21004;-57
2022/04/16 08:12:49;;;;;;;10.90;8.58;;;;;;;4.74;97.64;98842.19;1747419;82;20945;-57
2022/04/16 08:15:15;;;;;;;11.28;8.35;;;;;;;4.75;98.01;98839.80;1748182;81;21040;-57
2022/04/16 08:17:41;;;;;;;11.90;8.65;;;;;;;4.85;97.98;98846.00;1747368;81;21546;-57
2022/04/16 08:20:08;;;;;;;34.92;31.50;;;;;;;4.89;97.81;98845.05;1748167;82;20940;-57
2022/04/16 08:22:38;;;;;;;12.37;11.08;;;;;;;4.89;97.96;98847.73;1748198;82;21509;-57
2022/04/16 08:27:43;;;;;;;11.00;7.65;;;;;;;4.90;98.24;98849.38;1748367;82;20945;-57
2022/04/16 08:30:14;;;;;;;7.87;5.62;;;;;;;4.78;96.88;98848.74;1727166;81;21417;-57
2022/04/16 08:32:38;;;;;;;6.12;5.08;;;;;;;4.80;97.43;98847.20;1721146;82;21000;-57
2022/04/16 08:35:06;;;;;;;9.48;5.42;;;;;;;4.81;97.17;98846.16;1728838;81;20965;-57
2022/04/16 08:37:32;;;;;;;9.95;7.17;;;;;;;4.69;97.18;98854.10;1726200;81;21912;-57
2022/04/16 08:39:58;;;;;;;5.90;5.17;;;;;;;4.58;97.62;98855.36;1744138;82;20960;-57
2022/04/16 08:42:23;;;;;;;10.23;7.62;;;;;;;4.64;97.69;98860.67;1748279;82;22266;-57
2022/04/16 08:44:50;;;;;;;12.80;10.63;;;;;;;4.73;97.62;98858.53;1747974;81;21406;-57
2022/04/16 08:47:16;;;;;;;13.78;12.47;;;;;;;4.74;97.58;98866.88;1717873;82;20993;-57
2022/04/16 08:49:42;;;;;;;9.10;6.85;;;;;;;4.65;96.86;98856.13;1748133;82;20850;-57
2022/04/16 08:52:09;;;;;;;7.75;6.95;;;;;;;4.65;96.86;98856.13;1719510;82;20951;-57
2022/04/16 08:54:36;;;;;;;11.00;8.75;;;;;;;4.63;97.24;98868.95;1748004;82;21730;-57
2022/04/16 08:57:02;;;;;;;10.00;8.85;;;;;;;4.68;97.39;98871.27;1747859;82;20969;-57
2022/04/16 08:59:27;;;;;;;7.40;5.35;;;;;;;4.69;97.45;98867.53;1733380;81;20846;-57
2022/04/16 09:01:53;;;;;;;9.00;6.55;;;;;;;4.69;97.41;98876.11;1738054;82;20885;-57
2022/04/16 09:04:20;;;;;;;7.67;5.67;;;;;;;4.66;97.38;98871.19;1747495;81;20894;-57
2022/04/16 09:07:02;;;;;;;13.98;12.43;;;;;;;4.62;97.55;98877.53;1748344;82;22088;-57
2022/04/16 09:09:28;;;;;;;7.55;5.78;;;;;;;4.62;97.63;98872.69;1748137;82;21402;-57
2022/04/16 09:11:54;;;;;;;8.63;6.17;;;;;;;4.48;98.76;98880.84;1745047;82;21025;-56
2022/04/16 09:14:34;;;;;;;8.15;6.33;;;;;;;4.51;98.51;98879.57;1741414;82;21385;-57
2022/04/16 09:17:00;;;;;;;10.82;8.00;;;;;;;4.53;98.24;98885.05;1732596;82;21020;-57
2022/04/16 09:19:28;;;;;;;13.13;10.38;;;;;;;4.53;98.04;98883.70;1738419;81;21160;-57
2022/04/16 09:21:55;;;;;;;9.53;7.83;;;;;;;4.53;98.04;98883.70;1748473;82;20978;-56
2022/04/16 09:24:21;;;;;;;12.90;9.85;;;;;;;4.56;97.89;98888.32;1742384;81;21394;-57
2022/04/16 09:26:49;;;;;;;10.43;8.45;;;;;;;4.61;97.63;98888.47;1748476;81;20952;-57
2022/04/16 09:29:16;;;;;;;11.48;7.58;;;;;;;4.65;97.71;98891.84;1741258;82;21048;-57
2022/04/16 09:31:46;;;;;;;16.93;10.05;;;;;;;4.68;97.76;98891.92;1723461;82;21050;-57
2022/04/16 09:34:23;;;;;;;;;;;;;;;4.74;97.08;98899.10;1744776;82;21402;-57
2022/04/16 09:36:50;;;;;;;13.93;7.58;;;;;;;4.66;96.74;98899.38;1751958;81;20157;-56
2022/04/16 09:39:16;;;;;;;15.00;8.60;;;;;;;4.75;96.77;98903.42;1749966;81;21430;-57
2022/04/16 09:41:46;;;;;;;18.20;9.10;;;;;;;4.75;96.77;98904.77;1743320;81;20897;-57
2022/04/16 09:44:28;;;;;;;14.63;10.75;;;;;;;4.69;97.05;98902.95;1747408;82;21583;-57
2022/04/16 09:46:53;;;;;;;27.42;14.45;;;;;;;4.62;97.22;98912.43;1746923;82;20978;-57
2022/04/16 09:49:19;;;;;;;31.12;17.62;;;;;;;4.42;97.87;98920.63;1745182;82;21009;-57
2022/04/16 09:51:46;;;;;;;18.35;12.18;;;;;;;4.39;98.19;98916.22;1747899;82;21088;-57
2022/04/16 09:54:13;;;;;;;20.85;14.90;;;;;;;4.34;99.23;98923.57;1747809;82;20965;-57
2022/04/16 09:56:41;;;;;;;15.60;11.43;;;;;;;4.14;98.98;98927.73;1747470;82;21765;-56
2022/04/16 09:59:12;;;;;;;13.98;10.43;;;;;;;4.08;99.44;98930.45;1747537;82;20985;-57
2022/04/16 10:01:38;;;;;;;15.78;10.75;;;;;;;3.99;99.46;98937.93;1747959;82;20953;-56
2022/04/16 10:04:06;;;;;;;14.23;10.45;;;;;;;4.05;99.49;98939.77;1747819;82;21422;-57
2022/04/16 10:06:32;;;;;;;15.93;10.38;;;;;;;4.10;99.48;98946.66;1747927;81;20961;-57
2022/04/16 10:09:00;;;;;;;21.20;15.95;;;;;;;4.17;98.72;98945.25;1748031;82;22354;-57
2022/04/16 10:14:18;;;;;;;18.25;12.30;;;;;;;4.18;97.81;98948.23;1740378;82;21005;-56
2022/04/16 10:17:10;;;;;;;17.23;12.60;;;;;;;4.22;98.24;98954.83;1746144;82;21005;-57
2022/04/16 10:19:40;;;;;;;21.20;12.98;;;;;;;4.23;98.18;98953.27;1730675;82;20961;-57
2022/04/16 10:22:06;;;;;;;24.80;16.75;;;;;;;4.26;98.79;98962.73;1748089;82;21460;-57
2022/04/16 10:24:32;;;;;;;15.60;10.70;;;;;;;4.23;97.86;98961.31;1736143;81;20880;-57
2022/04/16 10:27:04;;;;;;;20.10;11.97;;;;;;;4.17;96.50;98960.01;1730636;82;20895;-57
2022/04/16 10:29:37;;;;;;;22.95;14.83;;;;;;;4.21;96.37;98963.40;1743348;82;20965;-57
2022/04/16 10:32:13;;;;;;;16.90;9.73;;;;;;;4.27;96.46;98972.42;1739709;82;20961;-57
2022/04/16 10:34:40;;;;;;;18.10;12.37;;;;;;;4.14;96.22;98968.50;1741885;80;21933;-57
2022/04/16 10:37:07;;;;;;;14.65;9.98;;;;;;;4.27;95.76;98972.95;1733489;82;21442;-57
2022/04/16 10:39:35;;;;;;;15.30;9.63;;;;;;;4.32;96.10;98973.13;1734388;82;21052;-57
2022/04/16 10:42:04;;;;;;;11.23;8.60;;;;;;;4.22;94.94;98980.32;1727498;82;21091;-57
2022/04/16 10:44:45;;;;;;;14.78;9.88;;;;;;;4.37;94.89;98976.00;1730663;82;20995;-57
2022/04/16 10:47:15;;;;;;;12.53;8.53;;;;;;;4.40;94.85;98984.44;1731800;82;22793;-57
2022/04/16 10:49:42;;;;;;;13.95;8.85;;;;;;;4.51;94.04;98982.91;1701974;83;21063;-57
2022/04/16 10:52:21;;;;;;;13.30;9.90;;;;;;;4.53;93.48;98984.88;1740605;82;20953;-57
2022/04/16 10:54:47;;;;;;;15.35;10.05;;;;;;;4.61;93.78;98989.14;1748346;82;20988;-57
2022/04/16 10:57:23;;;;;;;14.33;9.10;;;;;;;4.64;93.23;98990.06;1748627;82;20950;-57
2022/04/16 10:59:49;;;;;;;14.13;9.30;;;;;;;4.68;93.32;98992.08;1748170;81;21547;-56
2022/04/16 11:02:25;;;;;;;27.98;17.30;;;;;;;4.67;93.25;98996.33;1739234;82;20872;-57
2022/04/16 11:05:05;;;;;;;12.88;9.35;;;;;;;4.69;93.17;99003.64;1726154;81;20973;-56
2022/04/16 11:07:35;;;;;;;36.03;20.52;;;;;;;4.64;92.31;99000.28;1749665;81;20944;-57
2022/04/16 11:10:07;;;;;;;100.58;39.18;;;;;;;4.68;93.02;99000.13;1757731;81;21418;-57
2022/04/16 11:12:32;;;;;;;24.65;16.45;;;;;;;4.72;93.04;99006.73;1758782;80;22328;-56
2022/04/16 11:15:00;;;;;;;15.58;10.45;;;;;;;4.73;93.30;99004.34;1757150;81;20924;-57
2022/04/16 11:17:27;;;;;;;49.55;26.33;;;;;;;4.76;92.77;99013.30;1756973;80;21002;-57
2022/04/16 11:20:04;;;;;;;31.25;17.25;;;;;;;4.78;91.97;99015.76;1742242;81;20975;-57
2022/04/16 11:22:30;;;;;;;10.72;6.90;;;;;;;4.87;91.57;99026.56;1742516;81;21022;-57
2022/04/16 11:24:59;;;;;;;11.18;7.60;;;;;;;4.78;89.54;99022.47;1747927;81;21547;-56
2022/04/16 11:36:00;;;;;;;12.88;8.93;;;;;;;4.97;87.03;99036.29;1789632;80;20951;-57
2022/04/16 11:38:31;;;;;;;11.78;8.70;;;;;;;5.00;87.59;99031.81;1790057;80;21501;-57
2022/04/16 11:40:59;;;;;;;15.03;9.30;;;;;;;5.13;87.72;99036.27;1770221;80;21477;-57
2022/04/16 11:43:28;;;;;;;24.63;14.00;;;;;;;4.97;86.42;99038.16;1756502;81;21552;-57
2022/04/16 11:45:55;;;;;;;10.23;6.83;;;;;;;4.96;85.94;99038.68;1750691;81;20961;-56
2022/04/16 11:48:22;;;;;;;10.03;6.72;;;;;;;5.02;86.02;99043.67;1751899;80;20976;-57
2022/04/16 11:50:48;;;;;;;11.63;6.60;;;;;;;5.02;85.99;99043.16;1756831;81;21421;-57
2022/04/16 11:53:14;;;;;;;8.10;6.10;;;;;;;5.14;86.72;99042.47;1760341;80;20830;-57
2022/04/16 11:55:47;;;;;;;9.90;6.53;;;;;;;5.21;86.22;99043.20;1759578;80;21379;-56
2022/04/16 11:58:13;;;;;;;7.75;6.47;;;;;;;5.37;84.95;99037.27;1760880;80;21387;-56
2022/04/16 12:00:53;;;;;;;12.90;6.55;;;;;;;5.67;83.17;99037.40;1759538;80;20976;-56